sensor_id;sensor_type;location;lat;lon;timestamp;pressure;altitude;pressure_sealevel;temperature;humidity
55914;BME280;58179;48.776;9.124;2023-06-22T00:00:50;97396.78;;;20.32;100.00
55914;BME280;58179;48.776;9.124;2023-06-22T00:03:18;97398.41;;;20.33;100.00
55914;BME280;58179;48.776;9.124;2023-06-22T00:05:45;97399.69;;;20.36;100.00
55914;BME280;58179;48.776;9.124;2023-06-22T00:08:11;97403.16;;;20.36;100.00
55914;BME280;58179;48.776;9.124;2023-06-22T00:10:39;97400.94;;;20.38;100.00
55914;BME280;58179;48.776;9.124;2023-06-22T00:13:06;97403.50;;;20.43;100.00
55914;BME280;58179;48.776;9.124;2023-06-22T00:15:33;97397.47;;;20.46;100.00
55914;BME280;58179;48.776;9.124;2023-06-22T00:17:59;97396.84;;;20.50;100.00
55914;BME280;58179;48.776;9.124;2023-06-22T00:20:27;97402.38;;;20.53;100.00
55914;BME280;58179;48.776;9.124;2023-06-22T00:22:54;97406.97;;;20.53;100.00
55914;BME280;58179;48.776;9.124;2023-06-22T00:25:20;97405.72;;;20.50;100.00
55914;BME280;58179;48.776;9.124;2023-06-22T00:27:48;97416.78;;;20.48;100.00
55914;BME280;58179;48.776;9.124;2023-06-22T00:30:15;97402.53;;;20.48;100.00
55914;BME280;58179;48.776;9.124;2023-06-22T00:32:41;97406.63;;;20.45;100.00
55914;BME280;58179;48.776;9.124;2023-06-22T00:35:07;97401.59;;;20.44;100.00
55914;BME280;58179;48.776;9.124;2023-06-22T00:37:35;97391.47;;;20.41;100.00
55914;BME280;58179;48.776;9.124;2023-06-22T00:40:01;97392.06;;;20.38;100.00
55914;BME280;58179;48.776;9.124;2023-06-22T00:42:28;97393.19;;;20.37;100.00
55914;BME280;58179;48.776;9.124;2023-06-22T00:44:56;97395.72;;;20.33;100.00
55914;BME280;58179;48.776;9.124;2023-06-22T00:47:23;97397.09;;;20.31;100.00
55914;BME280;58179;48.776;9.124;2023-06-22T00:49:50;97397.72;;;20.28;100.00
55914;BME280;58179;48.776;9.124;2023-06-22T00:52:22;97409.28;;;20.28;100.00
55914;BME280;58179;48.776;9.124;2023-06-22T00:54:55;97424.31;;;20.29;100.00
55914;BME280;58179;48.776;9.124;2023-06-22T00:57:22;97422.72;;;20.28;100.00
55914;BME280;58179;48.776;9.124;2023-06-22T00:59:52;97406.88;;;20.18;100.00
55914;BME280;58179;48.776;9.124;2023-06-22T01:02:19;97412.56;;;20.17;100.00
55914;BME280;58179;48.776;9.124;2023-06-22T01:04:46;97453.84;;;20.21;100.00
55914;BME280;58179;48.776;9.124;2023-06-22T01:07:17;97476.31;;;20.25;100.00
55914;BME280;58179;48.776;9.124;2023-06-22T01:09:53;97441.66;;;20.23;100.00
55914;BME280;58179;48.776;9.124;2023-06-22T01:12:23;97413.22;;;20.22;100.00
55914;BME280;58179;48.776;9.124;2023-06-22T01:14:57;97432.19;;;20.26;100.00
55914;BME280;58179;48.776;9.124;2023-06-22T01:17:30;97436.97;;;20.29;100.00
55914;BME280;58179;48.776;9.124;2023-06-22T01:19:57;97432.84;;;20.31;100.00
55914;BME280;58179;48.776;9.124;2023-06-22T01:22:30;97415.28;;;20.25;100.00
55914;BME280;58179;48.776;9.124;2023-06-22T01:25:04;97409.75;;;20.22;100.00
55914;BME280;58179;48.776;9.124;2023-06-22T01:27:40;97414.63;;;20.20;100.00
55914;BME280;58179;48.776;9.124;2023-06-22T01:30:16;97411.63;;;20.21;100.00
55914;BME280;58179;48.776;9.124;2023-06-22T01:32:44;97404.97;;;20.19;100.00
55914;BME280;58179;48.776;9.124;2023-06-22T01:35:12;97400.69;;;20.09;100.00
55914;BME280;58179;48.776;9.124;2023-06-22T01:37:40;97403.66;;;20.07;100.00
55914;BME280;58179;48.776;9.124;2023-06-22T01:40:08;97417.44;;;20.06;100.00
55914;BME280;58179;48.776;9.124;2023-06-22T01:42:35;97416.66;;;20.05;100.00
55914;BME280;58179;48.776;9.124;2023-06-22T01:45:02;97404.91;;;20.01;100.00
55914;BME280;58179;48.776;9.124;2023-06-22T01:47:32;97411.41;;;20.00;100.00
55914;BME280;58179;48.776;9.124;2023-06-22T01:49:59;97418.66;;;20.00;100.00
55914;BME280;58179;48.776;9.124;2023-06-22T01:52:26;97421.19;;;19.96;100.00
55914;BME280;58179;48.776;9.124;2023-06-22T01:54:52;97420.34;;;19.87;100.00
55914;BME280;58179;48.776;9.124;2023-06-22T01:57:19;97421.00;;;19.84;100.00
55914;BME280;58179;48.776;9.124;2023-06-22T01:59:50;97439.31;;;19.82;100.00
55914;BME280;58179;48.776;9.124;2023-06-22T02:02:20;97426.19;;;19.81;100.00
55914;BME280;58179;48.776;9.124;2023-06-22T02:04:56;97432.66;;;19.80;100.00
55914;BME280;58179;48.776;9.124;2023-06-22T02:07:24;97432.16;;;19.78;100.00
55914;BME280;58179;48.776;9.124;2023-06-22T02:09:55;97432.78;;;19.75;100.00
55914;BME280;58179;48.776;9.124;2023-06-22T02:12:24;97431.94;;;19.65;100.00
55914;BME280;58179;48.776;9.124;2023-06-22T02:14:52;97433.78;;;19.56;100.00
55914;BME280;58179;48.776;9.124;2023-06-22T02:17:18;97435.38;;;19.57;100.00
55914;BME280;58179;48.776;9.124;2023-06-22T02:19:45;97428.41;;;19.56;100.00
55914;BME280;58179;48.776;9.124;2023-06-22T02:22:12;97431.59;;;19.58;100.00
55914;BME280;58179;48.776;9.124;2023-06-22T02:24:39;97428.41;;;19.56;100.00
55914;BME280;58179;48.776;9.124;2023-06-22T02:27:06;97425.19;;;19.46;100.00
55914;BME280;58179;48.776;9.124;2023-06-22T02:29:33;97422.59;;;19.41;100.00
55914;BME280;58179;48.776;9.124;2023-06-22T02:31:59;97412.97;;;19.40;100.00
55914;BME280;58179;48.776;9.124;2023-06-22T02:34:25;97411.88;;;19.41;100.00
55914;BME280;58179;48.776;9.124;2023-06-22T02:36:52;97412.84;;;19.45;100.00
55914;BME280;58179;48.776;9.124;2023-06-22T02:39:21;97412.56;;;19.46;100.00
55914;BME280;58179;48.776;9.124;2023-06-22T02:41:48;97404.91;;;19.40;100.00
55914;BME280;58179;48.776;9.124;2023-06-22T02:44:15;97409.94;;;19.32;100.00
55914;BME280;58179;48.776;9.124;2023-06-22T02:46:41;97399.31;;;19.27;100.00
55914;BME280;58179;48.776;9.124;2023-06-22T02:49:07;97392.06;;;19.28;100.00
55914;BME280;58179;48.776;9.124;2023-06-22T02:51:34;97397.00;;;19.34;100.00
55914;BME280;58179;48.776;9.124;2023-06-22T02:54:00;97396.50;;;19.32;100.00
55914;BME280;58179;48.776;9.124;2023-06-22T02:56:29;97399.38;;;19.36;100.00
55914;BME280;58179;48.776;9.124;2023-06-22T02:58:56;97397.00;;;19.34;100.00
55914;BME280;58179;48.776;9.124;2023-06-22T03:01:26;97392.56;;;19.30;100.00
55914;BME280;58179;48.776;9.124;2023-06-22T03:03:53;97389.88;;;19.30;100.00
55914;BME280;58179;48.776;9.124;2023-06-22T03:06:20;97391.28;;;19.27;100.00
55914;BME280;58179;48.776;9.124;2023-06-22T03:08:49;97381.63;;;19.26;100.00
55914;BME280;58179;48.776;9.124;2023-06-22T03:11:15;97386.53;;;19.24;100.00
55914;BME280;58179;48.776;9.124;2023-06-22T03:13:43;97384.16;;;19.23;100.00
55914;BME280;58179;48.776;9.124;2023-06-22T03:16:11;97377.13;;;19.13;100.00
55914;BME280;58179;48.776;9.124;2023-06-22T03:18:37;97380.41;;;19.10;100.00
55914;BME280;58179;48.776;9.124;2023-06-22T03:21:04;97378.38;;;19.07;100.00
55914;BME280;58179;48.776;9.124;2023-06-22T03:23:30;97382.94;;;19.07;100.00
55914;BME280;58179;48.776;9.124;2023-06-22T03:25:56;97379.75;;;19.05;100.00
55914;BME280;58179;48.776;9.124;2023-06-22T03:28:22;97387.00;;;19.04;100.00
55914;BME280;58179;48.776;9.124;2023-06-22T03:30:50;97380.56;;;19.05;100.00
55914;BME280;58179;48.776;9.124;2023-06-22T03:33:16;97379.25;;;19.03;100.00
55914;BME280;58179;48.776;9.124;2023-06-22T03:35:42;97384.47;;;18.99;100.00
55914;BME280;58179;48.776;9.124;2023-06-22T03:38:08;97379.91;;;19.00;100.00
55914;BME280;58179;48.776;9.124;2023-06-22T03:40:34;97377.50;;;18.98;100.00
55914;BME280;58179;48.776;9.124;2023-06-22T03:43:01;97371.66;;;18.96;100.00
55914;BME280;58179;48.776;9.124;2023-06-22T03:45:27;97373.53;;;18.95;100.00
55914;BME280;58179;48.776;9.124;2023-06-22T03:47:54;97369.75;;;18.97;100.00
55914;BME280;58179;48.776;9.124;2023-06-22T03:50:21;97371.84;;;19.00;100.00
55914;BME280;58179;48.776;9.124;2023-06-22T03:52:47;97368.88;;;19.01;100.00
55914;BME280;58179;48.776;9.124;2023-06-22T03:55:13;97369.81;;;19.05;100.00
55914;BME280;58179;48.776;9.124;2023-06-22T03:57:40;97369.53;;;19.07;100.00
55914;BME280;58179;48.776;9.124;2023-06-22T04:00:07;97366.47;;;19.00;100.00
55914;BME280;58179;48.776;9.124;2023-06-22T04:02:36;97363.91;;;18.94;100.00
55914;BME280;58179;48.776;9.124;2023-06-22T04:05:04;97363.91;;;18.94;100.00
55914;BME280;58179;48.776;9.124;2023-06-22T04:07:31;97363.50;;;19.01;100.00
55914;BME280;58179;48.776;9.124;2023-06-22T04:09:58;97362.88;;;19.04;100.00
55914;BME280;58179;48.776;9.124;2023-06-22T04:12:24;97352.63;;;19.06;100.00
55914;BME280;58179;48.776;9.124;2023-06-22T04:14:50;97361.97;;;19.09;100.00
55914;BME280;58179;48.776;9.124;2023-06-22T04:17:16;97358.94;;;19.10;100.00
55914;BME280;58179;48.776;9.124;2023-06-22T04:19:43;97358.34;;;19.13;100.00
55914;BME280;58179;48.776;9.124;2023-06-22T04:22:11;97357.25;;;19.14;100.00
55914;BME280;58179;48.776;9.124;2023-06-22T04:24:38;97347.81;;;19.17;100.00
55914;BME280;58179;48.776;9.124;2023-06-22T04:27:05;97349.06;;;19.19;100.00
55914;BME280;58179;48.776;9.124;2023-06-22T04:29:31;97349.25;;;19.23;100.00
55914;BME280;58179;48.776;9.124;2023-06-22T04:31:58;97350.72;;;19.29;100.00
55914;BME280;58179;48.776;9.124;2023-06-22T04:34:25;97351.66;;;19.33;100.00
55914;BME280;58179;48.776;9.124;2023-06-22T04:36:55;97349.97;;;19.37;100.00
55914;BME280;58179;48.776;9.124;2023-06-22T04:39:23;97345.84;;;19.40;100.00
55914;BME280;58179;48.776;9.124;2023-06-22T04:41:50;97351.72;;;19.42;100.00
55914;BME280;58179;48.776;9.124;2023-06-22T04:44:18;97340.69;;;19.43;100.00
55914;BME280;58179;48.776;9.124;2023-06-22T04:46:50;97342.75;;;19.46;100.00
55914;BME280;58179;48.776;9.124;2023-06-22T04:49:20;97331.91;;;19.51;100.00
55914;BME280;58179;48.776;9.124;2023-06-22T04:51:47;97335.22;;;19.57;100.00
55914;BME280;58179;48.776;9.124;2023-06-22T04:54:14;97325.13;;;19.62;100.00
55914;BME280;58179;48.776;9.124;2023-06-22T04:56:41;97326.59;;;19.68;100.00
55914;BME280;58179;48.776;9.124;2023-06-22T04:59:08;97325.66;;;19.73;100.00
55914;BME280;58179;48.776;9.124;2023-06-22T05:01:34;97323.63;;;19.79;100.00
55914;BME280;58179;48.776;9.124;2023-06-22T05:04:01;97322.84;;;19.87;100.00
55914;BME280;58179;48.776;9.124;2023-06-22T05:06:28;97325.56;;;19.95;100.00
55914;BME280;58179;48.776;9.124;2023-06-22T05:08:55;97326.69;;;20.03;100.00
55914;BME280;58179;48.776;9.124;2023-06-22T05:11:23;97328.59;;;20.11;100.00
55914;BME280;58179;48.776;9.124;2023-06-22T05:13:51;97324.34;;;20.19;100.00
55914;BME280;58179;48.776;9.124;2023-06-22T05:16:17;97323.38;;;20.23;100.00
55914;BME280;58179;48.776;9.124;2023-06-22T05:18:49;97320.22;;;20.30;100.00
55914;BME280;58179;48.776;9.124;2023-06-22T05:21:15;97317.94;;;20.37;100.00
55914;BME280;58179;48.776;9.124;2023-06-22T05:23:42;97310.97;;;20.44;100.00
55914;BME280;58179;48.776;9.124;2023-06-22T05:26:08;97315.06;;;20.51;100.00
55914;BME280;58179;48.776;9.124;2023-06-22T05:28:36;97303.84;;;20.57;100.00
55914;BME280;58179;48.776;9.124;2023-06-22T05:31:03;97306.34;;;20.62;100.00
55914;BME280;58179;48.776;9.124;2023-06-22T05:33:30;97300.03;;;20.67;100.00
55914;BME280;58179;48.776;9.124;2023-06-22T05:35:56;97303.34;;;20.72;100.00
55914;BME280;58179;48.776;9.124;2023-06-22T05:38:22;97300.97;;;20.79;100.00
55914;BME280;58179;48.776;9.124;2023-06-22T05:40:48;97305.84;;;20.86;100.00
55914;BME280;58179;48.776;9.124;2023-06-22T05:43:14;97305.22;;;20.89;100.00
55914;BME280;58179;48.776;9.124;2023-06-22T05:45:41;97305.38;;;20.93;100.00
55914;BME280;58179;48.776;9.124;2023-06-22T05:48:08;97313.94;;;20.95;100.00
55914;BME280;58179;48.776;9.124;2023-06-22T05:50:36;97307.13;;;20.97;100.00
55914;BME280;58179;48.776;9.124;2023-06-22T05:53:02;97308.69;;;20.98;100.00
55914;BME280;58179;48.776;9.124;2023-06-22T05:55:29;97305.34;;;21.01;100.00
55914;BME280;58179;48.776;9.124;2023-06-22T05:57:55;97307.25;;;21.01;100.00
55914;BME280;58179;48.776;9.124;2023-06-22T06:00:21;97303.28;;;20.98;100.00
55914;BME280;58179;48.776;9.124;2023-06-22T06:02:48;97305.06;;;20.94;100.00
55914;BME280;58179;48.776;9.124;2023-06-22T06:05:16;97303.00;;;20.91;100.00
55914;BME280;58179;48.776;9.124;2023-06-22T06:07:44;97306.78;;;20.90;100.00
55914;BME280;58179;48.776;9.124;2023-06-22T06:10:11;97302.84;;;20.88;100.00
55914;BME280;58179;48.776;9.124;2023-06-22T06:12:37;97292.41;;;20.86;100.00
55914;BME280;58179;48.776;9.124;2023-06-22T06:15:06;97294.00;;;20.87;100.00
55914;BME280;58179;48.776;9.124;2023-06-22T06:17:32;97291.00;;;20.89;100.00
55914;BME280;58179;48.776;9.124;2023-06-22T06:19:59;97295.41;;;20.93;100.00
55914;BME280;58179;48.776;9.124;2023-06-22T06:22:27;97287.94;;;20.99;100.00
55914;BME280;58179;48.776;9.124;2023-06-22T06:24:53;97288.59;;;21.04;100.00
55914;BME280;58179;48.776;9.124;2023-06-22T06:27:20;97296.47;;;21.09;100.00
55914;BME280;58179;48.776;9.124;2023-06-22T06:29:46;97296.81;;;21.16;100.00
55914;BME280;58179;48.776;9.124;2023-06-22T06:32:14;97292.81;;;21.22;100.00
55914;BME280;58179;48.776;9.124;2023-06-22T06:34:41;97287.25;;;21.28;100.00
55914;BME280;58179;48.776;9.124;2023-06-22T06:37:07;97300.06;;;21.31;100.00
55914;BME280;58179;48.776;9.124;2023-06-22T06:39:34;97298.34;;;21.35;100.00
55914;BME280;58179;48.776;9.124;2023-06-22T06:42:01;97301.63;;;21.40;100.00
55914;BME280;58179;48.776;9.124;2023-06-22T06:44:27;97294.47;;;21.44;100.00
55914;BME280;58179;48.776;9.124;2023-06-22T06:46:53;97292.41;;;21.50;100.00
55914;BME280;58179;48.776;9.124;2023-06-22T06:49:20;97299.19;;;21.56;100.00
55914;BME280;58179;48.776;9.124;2023-06-22T06:51:46;97297.28;;;21.56;100.00
55914;BME280;58179;48.776;9.124;2023-06-22T06:54:12;97297.41;;;21.60;100.00
55914;BME280;58179;48.776;9.124;2023-06-22T06:56:40;97292.19;;;21.63;100.00
55914;BME280;58179;48.776;9.124;2023-06-22T06:59:06;97286.81;;;21.63;100.00
55914;BME280;58179;48.776;9.124;2023-06-22T07:01:32;97300.88;;;21.69;100.00
55914;BME280;58179;48.776;9.124;2023-06-22T07:03:59;97298.28;;;21.73;100.00
55914;BME280;58179;48.776;9.124;2023-06-22T07:06:28;97288.78;;;21.75;100.00
55914;BME280;58179;48.776;9.124;2023-06-22T07:08:58;97285.13;;;21.80;100.00
55914;BME280;58179;48.776;9.124;2023-06-22T07:11:24;97282.56;;;21.83;100.00
55914;BME280;58179;48.776;9.124;2023-06-22T07:13:51;97283.81;;;21.86;100.00
55914;BME280;58179;48.776;9.124;2023-06-22T07:16:18;97275.06;;;21.89;100.00
55914;BME280;58179;48.776;9.124;2023-06-22T07:18:44;97279.81;;;21.92;100.00
55914;BME280;58179;48.776;9.124;2023-06-22T07:21:10;97268.09;;;21.88;100.00
55914;BME280;58179;48.776;9.124;2023-06-22T07:23:36;97262.69;;;21.96;100.00
55914;BME280;58179;48.776;9.124;2023-06-22T07:26:03;97257.16;;;21.93;100.00
55914;BME280;58179;48.776;9.124;2023-06-22T07:28:50;97256.91;;;22.07;100.00
55914;BME280;58179;48.776;9.124;2023-06-22T07:31:16;97252.44;;;22.11;100.00
55914;BME280;58179;48.776;9.124;2023-06-22T07:33:43;97256.84;;;22.15;100.00
55914;BME280;58179;48.776;9.124;2023-06-22T07:36:09;97242.38;;;22.20;100.00
55914;BME280;58179;48.776;9.124;2023-06-22T07:38:37;97234.88;;;22.25;100.00
55914;BME280;58179;48.776;9.124;2023-06-22T07:41:03;97236.28;;;22.31;100.00
55914;BME280;58179;48.776;9.124;2023-06-22T07:43:31;97234.47;;;22.35;100.00
55914;BME280;58179;48.776;9.124;2023-06-22T07:46:00;97235.41;;;22.39;100.00
55914;BME280;58179;48.776;9.124;2023-06-22T07:48:26;97217.75;;;22.42;100.00
55914;BME280;58179;48.776;9.124;2023-06-22T07:50:53;97211.38;;;22.47;100.00
55914;BME280;58179;48.776;9.124;2023-06-22T07:53:19;97212.38;;;22.42;100.00
55914;BME280;58179;48.776;9.124;2023-06-22T07:55:46;97218.38;;;22.48;100.00
55914;BME280;58179;48.776;9.124;2023-06-22T07:58:12;97217.22;;;22.49;100.00
55914;BME280;58179;48.776;9.124;2023-06-22T08:00:38;97218.72;;;22.58;100.00
55914;BME280;58179;48.776;9.124;2023-06-22T08:03:06;97219.28;;;22.64;100.00
55914;BME280;58179;48.776;9.124;2023-06-22T08:05:32;97232.13;;;22.67;100.00
55914;BME280;58179;48.776;9.124;2023-06-22T08:07:59;97238.69;;;22.78;100.00
55914;BME280;58179;48.776;9.124;2023-06-22T08:10:25;97248.19;;;22.84;100.00
55914;BME280;58179;48.776;9.124;2023-06-22T08:12:51;97253.50;;;22.93;100.00
55914;BME280;58179;48.776;9.124;2023-06-22T08:15:18;97252.16;;;22.99;100.00
55914;BME280;58179;48.776;9.124;2023-06-22T08:17:45;97248.34;;;23.12;100.00
55914;BME280;58179;48.776;9.124;2023-06-22T08:20:15;97246.91;;;23.27;100.00
55914;BME280;58179;48.776;9.124;2023-06-22T08:22:42;97256.56;;;23.40;100.00
55914;BME280;58179;48.776;9.124;2023-06-22T08:25:09;97260.00;;;23.49;100.00
55914;BME280;58179;48.776;9.124;2023-06-22T08:27:35;97262.22;;;23.35;100.00
55914;BME280;58179;48.776;9.124;2023-06-22T08:30:03;97260.06;;;23.40;100.00
55914;BME280;58179;48.776;9.124;2023-06-22T08:32:31;97262.38;;;23.50;100.00
55914;BME280;58179;48.776;9.124;2023-06-22T08:34:58;97262.56;;;23.45;100.00
55914;BME280;58179;48.776;9.124;2023-06-22T08:37:27;97261.00;;;23.57;100.00
55914;BME280;58179;48.776;9.124;2023-06-22T08:39:56;97259.97;;;23.37;100.00
55914;BME280;58179;48.776;9.124;2023-06-22T08:42:23;97257.94;;;23.34;100.00
55914;BME280;58179;48.776;9.124;2023-06-22T08:44:50;97245.13;;;23.55;100.00
55914;BME280;58179;48.776;9.124;2023-06-22T08:47:16;97245.66;;;23.85;100.00
55914;BME280;58179;48.776;9.124;2023-06-22T08:49:42;97245.75;;;24.13;100.00
55914;BME280;58179;48.776;9.124;2023-06-22T08:52:09;97243.41;;;23.87;100.00
55914;BME280;58179;48.776;9.124;2023-06-22T08:54:37;97241.34;;;24.20;100.00
55914;BME280;58179;48.776;9.124;2023-06-22T08:57:04;97243.38;;;24.23;100.00
55914;BME280;58179;48.776;9.124;2023-06-22T08:59:30;97250.00;;;24.14;100.00
55914;BME280;58179;48.776;9.124;2023-06-22T09:01:57;97246.72;;;24.33;100.00
55914;BME280;58179;48.776;9.124;2023-06-22T09:04:23;97251.66;;;24.43;100.00
55914;BME280;58179;48.776;9.124;2023-06-22T09:06:50;97241.84;;;24.66;100.00
55914;BME280;58179;48.776;9.124;2023-06-22T09:09:18;97231.47;;;24.84;100.00
55914;BME280;58179;48.776;9.124;2023-06-22T09:11:46;97220.19;;;24.94;100.00
55914;BME280;58179;48.776;9.124;2023-06-22T09:14:13;97241.91;;;24.97;100.00
55914;BME280;58179;48.776;9.124;2023-06-22T09:16:39;97272.09;;;24.96;100.00
55914;BME280;58179;48.776;9.124;2023-06-22T09:19:05;97265.09;;;24.95;100.00
55914;BME280;58179;48.776;9.124;2023-06-22T09:21:32;97254.84;;;25.04;100.00
55914;BME280;58179;48.776;9.124;2023-06-22T09:23:58;97248.84;;;25.26;100.00
55914;BME280;58179;48.776;9.124;2023-06-22T09:26:25;97245.97;;;25.35;100.00
55914;BME280;58179;48.776;9.124;2023-06-22T09:29:16;97228.84;;;25.47;100.00
55914;BME280;58179;48.776;9.124;2023-06-22T09:31:42;97214.41;;;25.58;100.00
55914;BME280;58179;48.776;9.124;2023-06-22T09:34:08;97215.00;;;25.67;100.00
55914;BME280;58179;48.776;9.124;2023-06-22T09:36:35;97213.69;;;25.77;100.00
55914;BME280;58179;48.776;9.124;2023-06-22T09:39:01;97215.13;;;25.90;100.00
55914;BME280;58179;48.776;9.124;2023-06-22T09:41:32;97204.53;;;26.01;100.00
55914;BME280;58179;48.776;9.124;2023-06-22T09:43:58;97212.31;;;26.21;100.00
55914;BME280;58179;48.776;9.124;2023-06-22T09:46:25;97210.69;;;26.36;100.00
55914;BME280;58179;48.776;9.124;2023-06-22T09:48:52;97196.59;;;26.11;100.00
55914;BME280;58179;48.776;9.124;2023-06-22T09:51:18;97191.47;;;26.26;100.00
55914;BME280;58179;48.776;9.124;2023-06-22T09:53:47;97176.25;;;26.40;100.00
55914;BME280;58179;48.776;9.124;2023-06-22T09:56:13;97176.16;;;26.17;100.00
55914;BME280;58179;48.776;9.124;2023-06-22T09:58:43;97170.28;;;26.31;100.00
55914;BME280;58179;48.776;9.124;2023-06-22T10:01:10;97169.31;;;26.43;100.00
55914;BME280;58179;48.776;9.124;2023-06-22T10:03:39;97173.94;;;26.62;100.00
55914;BME280;58179;48.776;9.124;2023-06-22T10:06:07;97173.03;;;26.77;100.00
55914;BME280;58179;48.776;9.124;2023-06-22T10:08:34;97170.75;;;26.79;100.00
55914;BME280;58179;48.776;9.124;2023-06-22T10:11:00;97174.03;;;26.88;100.00
55914;BME280;58179;48.776;9.124;2023-06-22T10:13:27;97159.50;;;26.57;100.00
55914;BME280;58179;48.776;9.124;2023-06-22T10:15:53;97155.19;;;26.53;100.00
55914;BME280;58179;48.776;9.124;2023-06-22T10:18:20;97155.44;;;26.48;100.00
55914;BME280;58179;48.776;9.124;2023-06-22T10:20:50;97159.44;;;26.54;100.00
55914;BME280;58179;48.776;9.124;2023-06-22T10:23:17;97156.81;;;26.57;100.00
55914;BME280;58179;48.776;9.124;2023-06-22T10:25:43;97154.31;;;26.49;100.00
55914;BME280;58179;48.776;9.124;2023-06-22T10:28:10;97155.31;;;26.60;100.00
55914;BME280;58179;48.776;9.124;2023-06-22T10:30:36;97159.50;;;26.57;100.00
55914;BME280;58179;48.776;9.124;2023-06-22T10:33:02;97153.13;;;26.69;100.00
55914;BME280;58179;48.776;9.124;2023-06-22T10:35:29;97151.84;;;26.86;100.00
55914;BME280;58179;48.776;9.124;2023-06-22T10:37:56;97144.44;;;26.83;100.00
55914;BME280;58179;48.776;9.124;2023-06-22T10:40:23;97133.63;;;27.09;100.00
55914;BME280;58179;48.776;9.124;2023-06-22T10:42:49;97135.50;;;27.28;100.00
55914;BME280;58179;48.776;9.124;2023-06-22T10:45:16;97128.91;;;27.29;100.00
55914;BME280;58179;48.776;9.124;2023-06-22T10:47:42;97125.09;;;27.33;100.00
55914;BME280;58179;48.776;9.124;2023-06-22T10:50:09;97129.56;;;27.49;100.00
55914;BME280;58179;48.776;9.124;2023-06-22T10:52:36;97132.78;;;27.54;100.00
55914;BME280;58179;48.776;9.124;2023-06-22T10:55:05;97139.44;;;27.57;100.00
55914;BME280;58179;48.776;9.124;2023-06-22T10:57:31;97138.69;;;27.60;100.00
55914;BME280;58179;48.776;9.124;2023-06-22T10:59:57;97134.88;;;27.64;100.00
55914;BME280;58179;48.776;9.124;2023-06-22T11:02:24;97129.00;;;27.62;100.00
55914;BME280;58179;48.776;9.124;2023-06-22T11:04:50;97130.94;;;27.62;100.00
55914;BME280;58179;48.776;9.124;2023-06-22T11:07:17;97134.78;;;27.57;100.00
55914;BME280;58179;48.776;9.124;2023-06-22T11:09:43;97128.91;;;27.55;100.00
55914;BME280;58179;48.776;9.124;2023-06-22T11:12:11;97128.56;;;27.57;100.00
55914;BME280;58179;48.776;9.124;2023-06-22T11:14:39;97131.53;;;27.52;100.00
55914;BME280;58179;48.776;9.124;2023-06-22T11:17:05;97130.25;;;27.42;100.00
55914;BME280;58179;48.776;9.124;2023-06-22T11:19:31;97129.47;;;27.42;100.00
55914;BME280;58179;48.776;9.124;2023-06-22T11:21:58;97141.03;;;27.61;100.00
55914;BME280;58179;48.776;9.124;2023-06-22T11:24:24;97133.56;;;27.55;100.00
55914;BME280;58179;48.776;9.124;2023-06-22T11:26:50;97124.06;;;27.45;100.00
55914;BME280;58179;48.776;9.124;2023-06-22T11:29:18;97121.25;;;27.38;100.00
55914;BME280;58179;48.776;9.124;2023-06-22T11:31:44;97109.91;;;27.32;100.00
55914;BME280;58179;48.776;9.124;2023-06-22T11:34:10;97113.78;;;27.31;100.00
55914;BME280;58179;48.776;9.124;2023-06-22T11:36:37;97127.28;;;27.24;100.00
55914;BME280;58179;48.776;9.124;2023-06-22T11:39:03;97122.25;;;27.26;100.00
55914;BME280;58179;48.776;9.124;2023-06-22T11:41:29;97115.81;;;27.38;100.00
55914;BME280;58179;48.776;9.124;2023-06-22T11:43:55;97118.34;;;27.50;100.00
55914;BME280;58179;48.776;9.124;2023-06-22T11:46:23;97114.19;;;27.60;100.00
55914;BME280;58179;48.776;9.124;2023-06-22T11:48:49;97119.34;;;27.65;100.00
55914;BME280;58179;48.776;9.124;2023-06-22T11:51:15;97112.41;;;27.71;100.00
55914;BME280;58179;48.776;9.124;2023-06-22T11:53:42;97115.16;;;27.74;100.00
55914;BME280;58179;48.776;9.124;2023-06-22T11:56:08;97114.00;;;27.72;100.00
55914;BME280;58179;48.776;9.124;2023-06-22T11:58:34;97112.34;;;27.67;100.00
55914;BME280;58179;48.776;9.124;2023-06-22T12:01:00;97132.59;;;27.70;100.00
55914;BME280;58179;48.776;9.124;2023-06-22T12:03:28;97127.06;;;27.93;100.00
55914;BME280;58179;48.776;9.124;2023-06-22T12:05:55;97134.69;;;27.80;100.00
55914;BME280;58179;48.776;9.124;2023-06-22T12:08:21;97136.16;;;27.74;100.00
55914;BME280;58179;48.776;9.124;2023-06-22T12:10:48;97132.09;;;27.61;100.00
55914;BME280;58179;48.776;9.124;2023-06-22T12:13:16;97135.69;;;27.42;100.00
55914;BME280;58179;48.776;9.124;2023-06-22T12:15:42;97135.50;;;27.54;100.00
55914;BME280;58179;48.776;9.124;2023-06-22T12:18:08;97124.03;;;27.42;100.00
55914;BME280;58179;48.776;9.124;2023-06-22T12:20:36;97119.03;;;27.44;100.00
55914;BME280;58179;48.776;9.124;2023-06-22T12:23:03;97118.28;;;27.47;100.00
55914;BME280;58179;48.776;9.124;2023-06-22T12:25:29;97121.13;;;27.54;100.00
55914;BME280;58179;48.776;9.124;2023-06-22T12:27:55;97118.50;;;27.61;100.00
55914;BME280;58179;48.776;9.124;2023-06-22T12:30:21;97127.84;;;27.63;100.00
55914;BME280;58179;48.776;9.124;2023-06-22T12:32:48;97130.44;;;27.53;100.00
55914;BME280;58179;48.776;9.124;2023-06-22T12:35:15;97128.44;;;27.50;100.00
55914;BME280;58179;48.776;9.124;2023-06-22T12:37:43;97130.34;;;27.49;100.00
55914;BME280;58179;48.776;9.124;2023-06-22T12:40:12;97144.56;;;27.39;100.00
55914;BME280;58179;48.776;9.124;2023-06-22T12:42:38;97143.91;;;27.19;100.00
55914;BME280;58179;48.776;9.124;2023-06-22T12:45:05;97132.09;;;27.34;100.00
55914;BME280;58179;48.776;9.124;2023-06-22T12:47:32;97140.00;;;27.43;100.00
55914;BME280;58179;48.776;9.124;2023-06-22T12:49:58;97147.72;;;27.41;100.00